Platte River (Nebraska), Leshara (06796500)

StateNebraskaLatestUnknown (2170 cfs)
RiverPlatte RiverRatingObservedEstimated
Updated2026-05-05 9:00 (46 minutes ago)Flood - The river is flooding. Obstacles can be treacherous or deadly. The river should be avoided at this stage for casual trips and definitely for the inexperienced. Trips should be attempted only with protective gear and equipment.Flood(none)(none)
Discharge2170 cfs (median: 6250 cfs)High - The river is high and potentially dangerous, especially for the young and / or inexperienced. Normal stream obstacles are sometimes difficult to navigate. Extended distances can be attempted, but canoe travel may not be advisable.High(none)(none)
Height3.88 feetGood - Conditions are ideal for a canoe or kayak. Boats typically will drag on fewer than one-quarter of riffles, if at all, and portages are unnecessary or rare. Normal float lengths can be attempted without a problem.Good(none)(none)
TrendFalling (falling over 24 hours)Low - River is low but can still be floated. Some riffles are okay but most come with significant dragging and might need a portage. Float lengths should be reduced to accommodate low flow, dragging, and portages.Low(none)(none)
USGSExternal icon USGS Site (External icon Duck Duck Go Maps)Poor - River is too low to float comfortably. Most or all riffles will drag or must be portaged and some obstacles (such as slick shelf rock) cause undue problems. Avoid the river at this stage for casual paddling trips.Poor(none)(none)

Trending Data

Plot Image

Trips for Platte River (Nebraska), Leshara (06796500)

DateStartEndDistanceConditionDischargeHeightFishingDetails

A total of 0 rows are displayed.

Condition Descriptions

Fishing Conditions

Fish Species

Notes

Classic Trip List

The classic River Trips application is still available for use. It is updated with the new system using a data retrofit. It is no longer maintained. The original River Trips application is no longer updated (as of 1 Dec 2016) but can be checked for errors or for the condition of the data before it was converted to the new system.

Gauge Data Table

ObservationHeightDischargeMaximum
Discharge
Minimum
Discharge
Mean
Discharge
P05P10P20P25P50
(Median)
P75P80P90P95
2026-05-05 09:00 3.88 2170 14600 (2016) 2270 (2004) 6220 2370 2710 3840 4240 6250 7010 7570 10900 12900
2026-05-05 08:00 3.89 2190 14600 (2016) 2270 (2004) 6220 2370 2710 3840 4240 6250 7010 7570 10900 12900
2026-05-05 07:00 3.89 2190 14600 (2016) 2270 (2004) 6220 2370 2710 3840 4240 6250 7010 7570 10900 12900
2026-05-05 06:00 3.90 2220 14600 (2016) 2270 (2004) 6220 2370 2710 3840 4240 6250 7010 7570 10900 12900
2026-05-05 05:00 3.90 2220 14600 (2016) 2270 (2004) 6220 2370 2710 3840 4240 6250 7010 7570 10900 12900
2026-05-05 04:00 3.88 2170 14600 (2016) 2270 (2004) 6220 2370 2710 3840 4240 6250 7010 7570 10900 12900
2026-05-05 03:00 3.86 2110 14600 (2016) 2270 (2004) 6220 2370 2710 3840 4240 6250 7010 7570 10900 12900
2026-05-05 02:00 3.86 2110 14600 (2016) 2270 (2004) 6220 2370 2710 3840 4240 6250 7010 7570 10900 12900
2026-05-05 01:00 3.85 2080 14600 (2016) 2270 (2004) 6220 2370 2710 3840 4240 6250 7010 7570 10900 12900
2026-05-05 00:00 3.84 2060 14600 (2016) 2270 (2004) 6220 2370 2710 3840 4240 6250 7010 7570 10900 12900
2026-05-04 23:00 3.85 2080 14600 (2016) 2270 (2004) 6220 2370 2710 3840 4240 6250 7010 7570 10900 12900
2026-05-04 22:00 3.84 2060 16000 (2016) 2490 (2023) 6170 2510 2880 3770 4470 6150 7100 7650 10200 13600
2026-05-04 21:00 3.87 2140 16000 (2016) 2490 (2023) 6170 2510 2880 3770 4470 6150 7100 7650 10200 13600
2026-05-04 20:00 3.87 2140 16000 (2016) 2490 (2023) 6170 2510 2880 3770 4470 6150 7100 7650 10200 13600
2026-05-04 19:00 3.88 2170 16000 (2016) 2490 (2023) 6170 2510 2880 3770 4470 6150 7100 7650 10200 13600
2026-05-04 18:00 3.89 2190 16000 (2016) 2490 (2023) 6170 2510 2880 3770 4470 6150 7100 7650 10200 13600
2026-05-04 17:00 3.90 2220 16000 (2016) 2490 (2023) 6170 2510 2880 3770 4470 6150 7100 7650 10200 13600
2026-05-04 16:00 3.90 2220 16000 (2016) 2490 (2023) 6170 2510 2880 3770 4470 6150 7100 7650 10200 13600
2026-05-04 15:00 3.90 2220 16000 (2016) 2490 (2023) 6170 2510 2880 3770 4470 6150 7100 7650 10200 13600
2026-05-04 14:00 3.92 2280 16000 (2016) 2490 (2023) 6170 2510 2880 3770 4470 6150 7100 7650 10200 13600
2026-05-04 13:00 3.93 2310 16000 (2016) 2490 (2023) 6170 2510 2880 3770 4470 6150 7100 7650 10200 13600
2026-05-04 12:00 3.93 2310 16000 (2016) 2490 (2023) 6170 2510 2880 3770 4470 6150 7100 7650 10200 13600
2026-05-04 11:00 3.91 2250 16000 (2016) 2490 (2023) 6170 2510 2880 3770 4470 6150 7100 7650 10200 13600
2026-05-04 10:00 3.92 2280 16000 (2016) 2490 (2023) 6170 2510 2880 3770 4470 6150 7100 7650 10200 13600
2026-05-04 09:00 3.92 2280 16000 (2016) 2490 (2023) 6170 2510 2880 3770 4470 6150 7100 7650 10200 13600
2026-05-04 08:00 3.93 2310 16000 (2016) 2490 (2023) 6170 2510 2880 3770 4470 6150 7100 7650 10200 13600
2026-05-04 07:00 3.92 2280 16000 (2016) 2490 (2023) 6170 2510 2880 3770 4470 6150 7100 7650 10200 13600
2026-05-04 06:00 3.92 2280 16000 (2016) 2490 (2023) 6170 2510 2880 3770 4470 6150 7100 7650 10200 13600
2026-05-04 05:00 3.93 2310 16000 (2016) 2490 (2023) 6170 2510 2880 3770 4470 6150 7100 7650 10200 13600
2026-05-04 04:00 3.92 2280 16000 (2016) 2490 (2023) 6170 2510 2880 3770 4470 6150 7100 7650 10200 13600
2026-05-04 03:00 3.91 2250 16000 (2016) 2490 (2023) 6170 2510 2880 3770 4470 6150 7100 7650 10200 13600
2026-05-04 02:00 3.91 2250 16000 (2016) 2490 (2023) 6170 2510 2880 3770 4470 6150 7100 7650 10200 13600
2026-05-04 01:00 3.91 2250 16000 (2016) 2490 (2023) 6170 2510 2880 3770 4470 6150 7100 7650 10200 13600
2026-05-04 00:00 3.90 2220 16000 (2016) 2490 (2023) 6170 2510 2880 3770 4470 6150 7100 7650 10200 13600
2026-05-03 23:00 3.89 2190 16000 (2016) 2490 (2023) 6170 2510 2880 3770 4470 6150 7100 7650 10200 13600
2026-05-03 22:00 3.89 2190 16700 (2016) 2450 (2004) 6020 2500 2620 3590 4500 6140 7290 7380 8140 13100
2026-05-03 21:00 3.87 2140 16700 (2016) 2450 (2004) 6020 2500 2620 3590 4500 6140 7290 7380 8140 13100
2026-05-03 20:00 3.89 2190 16700 (2016) 2450 (2004) 6020 2500 2620 3590 4500 6140 7290 7380 8140 13100
2026-05-03 19:00 3.88 2170 16700 (2016) 2450 (2004) 6020 2500 2620 3590 4500 6140 7290 7380 8140 13100
2026-05-03 18:00 3.89 2190 16700 (2016) 2450 (2004) 6020 2500 2620 3590 4500 6140 7290 7380 8140 13100
2026-05-03 17:00 3.89 2190 16700 (2016) 2450 (2004) 6020 2500 2620 3590 4500 6140 7290 7380 8140 13100
2026-05-03 16:00 3.91 2250 16700 (2016) 2450 (2004) 6020 2500 2620 3590 4500 6140 7290 7380 8140 13100
2026-05-03 15:00 3.91 2250 16700 (2016) 2450 (2004) 6020 2500 2620 3590 4500 6140 7290 7380 8140 13100
2026-05-03 14:00 3.92 2280 16700 (2016) 2450 (2004) 6020 2500 2620 3590 4500 6140 7290 7380 8140 13100
2026-05-03 13:00 3.92 2280 16700 (2016) 2450 (2004) 6020 2500 2620 3590 4500 6140 7290 7380 8140 13100
2026-05-03 12:00 3.92 2280 16700 (2016) 2450 (2004) 6020 2500 2620 3590 4500 6140 7290 7380 8140 13100
2026-05-03 11:00 3.91 2250 16700 (2016) 2450 (2004) 6020 2500 2620 3590 4500 6140 7290 7380 8140 13100
2026-05-03 10:00 3.89 2190 16700 (2016) 2450 (2004) 6020 2500 2620 3590 4500 6140 7290 7380 8140 13100
2026-05-03 09:00 3.85 2080 16700 (2016) 2450 (2004) 6020 2500 2620 3590 4500 6140 7290 7380 8140 13100
2026-05-03 08:00 3.84 2060 16700 (2016) 2450 (2004) 6020 2500 2620 3590 4500 6140 7290 7380 8140 13100
2026-05-03 07:00 3.82 2000 16700 (2016) 2450 (2004) 6020 2500 2620 3590 4500 6140 7290 7380 8140 13100
2026-05-03 06:00 3.81 1980 16700 (2016) 2450 (2004) 6020 2500 2620 3590 4500 6140 7290 7380 8140 13100
2026-05-03 05:00 3.80 1950 16700 (2016) 2450 (2004) 6020 2500 2620 3590 4500 6140 7290 7380 8140 13100
2026-05-03 04:00 3.78 1900 16700 (2016) 2450 (2004) 6020 2500 2620 3590 4500 6140 7290 7380 8140 13100
2026-05-03 03:00 3.77 1870 16700 (2016) 2450 (2004) 6020 2500 2620 3590 4500 6140 7290 7380 8140 13100
2026-05-03 02:00 3.78 1900 16700 (2016) 2450 (2004) 6020 2500 2620 3590 4500 6140 7290 7380 8140 13100
2026-05-03 01:00 3.76 1850 16700 (2016) 2450 (2004) 6020 2500 2620 3590 4500 6140 7290 7380 8140 13100
2026-05-03 00:00 3.76 1850 16700 (2016) 2450 (2004) 6020 2500 2620 3590 4500 6140 7290 7380 8140 13100
2026-05-02 23:00 3.75 1820 16700 (2016) 2450 (2004) 6020 2500 2620 3590 4500 6140 7290 7380 8140 13100
2026-05-02 22:00 3.76 1850 17400 (2016) 2290 (2004) 6210 2490 2980 3930 4490 6220 7200 7420 9240 13700
2026-05-02 21:00 3.76 1850 17400 (2016) 2290 (2004) 6210 2490 2980 3930 4490 6220 7200 7420 9240 13700
2026-05-02 20:00 3.77 1870 17400 (2016) 2290 (2004) 6210 2490 2980 3930 4490 6220 7200 7420 9240 13700
2026-05-02 19:00 3.77 1870 17400 (2016) 2290 (2004) 6210 2490 2980 3930 4490 6220 7200 7420 9240 13700
2026-05-02 18:00 3.78 1900 17400 (2016) 2290 (2004) 6210 2490 2980 3930 4490 6220 7200 7420 9240 13700
2026-05-02 17:00 3.78 1900 17400 (2016) 2290 (2004) 6210 2490 2980 3930 4490 6220 7200 7420 9240 13700
2026-05-02 16:00 3.79 1930 17400 (2016) 2290 (2004) 6210 2490 2980 3930 4490 6220 7200 7420 9240 13700
2026-05-02 15:00 3.80 1950 17400 (2016) 2290 (2004) 6210 2490 2980 3930 4490 6220 7200 7420 9240 13700
2026-05-02 14:00 3.82 2000 17400 (2016) 2290 (2004) 6210 2490 2980 3930 4490 6220 7200 7420 9240 13700
2026-05-02 13:00 3.84 2060 17400 (2016) 2290 (2004) 6210 2490 2980 3930 4490 6220 7200 7420 9240 13700
2026-05-02 12:00 3.86 2110 17400 (2016) 2290 (2004) 6210 2490 2980 3930 4490 6220 7200 7420 9240 13700
2026-05-02 11:00 3.88 2170 17400 (2016) 2290 (2004) 6210 2490 2980 3930 4490 6220 7200 7420 9240 13700
2026-05-02 10:00 3.91 2250 17400 (2016) 2290 (2004) 6210 2490 2980 3930 4490 6220 7200 7420 9240 13700
2026-05-02 09:00 3.94 2340 17400 (2016) 2290 (2004) 6210 2490 2980 3930 4490 6220 7200 7420 9240 13700
2026-05-02 08:00 3.96 2390 17400 (2016) 2290 (2004) 6210 2490 2980 3930 4490 6220 7200 7420 9240 13700
2026-05-02 07:00 3.99 2480 17400 (2016) 2290 (2004) 6210 2490 2980 3930 4490 6220 7200 7420 9240 13700
2026-05-02 06:00 4.02 2570 17400 (2016) 2290 (2004) 6210 2490 2980 3930 4490 6220 7200 7420 9240 13700
2026-05-02 05:00 4.05 2670 17400 (2016) 2290 (2004) 6210 2490 2980 3930 4490 6220 7200 7420 9240 13700
2026-05-02 04:00 4.09 2790 17400 (2016) 2290 (2004) 6210 2490 2980 3930 4490 6220 7200 7420 9240 13700
2026-05-02 03:00 4.12 2890 17400 (2016) 2290 (2004) 6210 2490 2980 3930 4490 6220 7200 7420 9240 13700
2026-05-02 02:00 4.16 3020 17400 (2016) 2290 (2004) 6210 2490 2980 3930 4490 6220 7200 7420 9240 13700
2026-05-02 01:00 4.17 3060 17400 (2016) 2290 (2004) 6210 2490 2980 3930 4490 6220 7200 7420 9240 13700
2026-05-02 00:00 4.22 3230 17400 (2016) 2290 (2004) 6210 2490 2980 3930 4490 6220 7200 7420 9240 13700
2026-05-01 23:00 4.26 3370 17400 (2016) 2290 (2004) 6210 2490 2980 3930 4490 6220 7200 7420 9240 13700

A total of 83 rows are displayed for years 1995 through 2024.